Latest Weather Observations for Swan Hill

IDN60801

Issued at 9:05 pm EST Thursday 31 July 2014 (issued every 30 minutes, with the page automatically refreshed every 10 minutes)

About weather observations | Map of weather stations | Latest weather observations for NSW | Other Formats
Station Details ID: 077094 Name: SWAN HILL AERODROME Lat: -35.38 Lon: 143.54 Height: 71.0 m
Data from the previous 72 hours. | See also: Recent months at Swan Hill
Date/Time
EST
Temp
°C
App
Temp
°C
Dew
Point
Rel
Hum
%
Delta-T
°C
Wind Press
QNH
hPa
Press
MSL
hPa
Rain
since 9 am
mm
Dir
 
Spd
km/h
Gust
km/h
Spd
kts
Gust
kts
31/09:00pm 9.5 1.4 7.2 85 1.1 W 39 50 21 27 1006.5 1006.6 0.6
31/08:30pm 9.4 3.5 7.7 89 0.8 W 28 33 15 18 1005.9 - 0.6
31/08:00pm 9.5 3.0 8.3 92 0.6 W 32 41 17 22 1005.4 - 0.4
31/07:30pm 9.5 3.0 8.3 92 0.6 W 32 43 17 23 1005.0 - 0.2
31/07:08pm 10.1 1.7 7.2 82 1.4 W 41 59 22 32 1004.7 - 0.0
31/07:00pm 10.8 1.5 6.1 73 2.2 W 44 59 24 32 1004.5 - 0.0
31/06:30pm 10.9 2.5 5.8 71 2.4 WSW 39 50 21 27 1004.2 - 0.0
31/06:06pm 11.0 1.6 5.6 69 2.5 WSW 44 63 24 34 1003.6 - 0.0
31/06:00pm 11.1 1.0 5.5 68 2.6 WSW 48 63 26 34 1003.7 1003.9 0.0
31/05:34pm 11.5 2.3 5.5 66 2.8 SW 43 61 23 33 1003.1 - 0.0
31/05:30pm 11.7 3.0 6.2 69 2.6 SW 41 54 22 29 1003.1 - 0.0
31/05:14pm 12.4 2.1 6.3 66 2.9 SW 50 69 27 37 1002.4 - 0.0
31/05:04pm 14.7 3.0 5.5 54 4.4 WSW 56 69 30 37 1001.8 - 0.0
31/05:00pm 19.4 7.2 -2.3 23 9.1 WNW 52 69 28 37 1000.8 - 0.0
31/04:31pm 19.8 9.0 -0.3 26 8.8 WNW 46 65 25 35 1000.5 - 0.0
31/04:30pm 19.8 8.7 -0.3 26 8.8 WNW 48 65 26 35 1000.5 - 0.0
31/04:00pm 20.4 7.9 -1.9 22 9.5 WNW 54 74 29 40 1000.2 - 0.0
31/03:32pm 21.0 7.3 -3.6 19 10.2 WNW 59 80 32 43 1000.0 - 0.0
31/03:30pm 21.0 7.7 -3.6 19 10.2 WNW 57 74 31 40 1000.2 - 0.0
31/03:10pm 21.0 8.5 -2.2 21 9.9 WNW 54 72 29 39 1000.3 - 0.0
31/03:00pm 21.0 7.8 -3.1 19 10.2 NW 57 74 31 40 1000.3 1000.4 0.0
31/02:30pm 20.9 8.8 -2.0 21 9.8 NW 52 72 28 39 1000.8 - 0.0
31/02:00pm 20.5 7.5 -1.7 22 9.5 WNW 57 78 31 42 1001.5 - 0.0
31/01:30pm 20.5 7.2 -0.9 23 9.4 WNW 59 80 32 43 1002.2 - 0.0
31/01:04pm 20.3 8.3 -0.9 24 9.2 NW 52 70 28 38 1002.5 - 0.0
31/01:00pm 20.6 8.8 0.1 25 9.1 NW 52 69 28 37 1002.9 - 0.0
31/12:36pm 20.3 7.4 -0.5 24 9.1 WNW 57 76 31 41 1003.3 - 0.0
31/12:30pm 20.0 6.2 -1.5 23 9.2 NW 61 76 33 41 1003.6 - 0.0
31/12:00pm 19.6 8.4 -0.4 26 8.8 NW 48 67 26 36 1004.4 1004.5 0.0
31/11:51am 19.4 8.2 -0.8 25 8.8 NW 48 67 26 36 1004.7 - 0.0
31/11:30am 18.9 8.3 0.8 29 8.1 NW 46 61 25 33 1005.3 - 0.0
31/11:00am 18.5 9.0 1.8 32 7.6 NW 41 54 22 29 1006.1 - 0.0
31/10:34am 17.8 7.7 0.6 31 7.6 NW 43 61 23 33 1006.6 - 0.0
31/10:30am 17.7 8.2 1.8 34 7.2 NW 41 52 22 28 1006.6 - 0.0
31/10:07am 16.7 8.8 2.1 37 6.6 NNW 33 52 18 28 1006.5 - 0.0
31/10:00am 15.7 8.3 3.9 45 5.5 N 32 39 17 21 1006.9 - 0.0
31/09:30am 13.8 6.8 4.0 51 4.5 N 30 39 16 21 1007.2 - 0.0
31/09:00am 11.5 6.1 4.5 62 3.2 N 22 30 12 16 1007.7 1007.8 0.0
31/08:30am 9.7 5.3 4.8 71 2.2 N 17 22 9 12 1008.3 - 0.0
31/08:00am 8.4 3.6 4.6 77 1.7 N 19 22 10 12 1008.7 - 0.0
31/07:30am 7.1 3.1 4.8 85 1.0 N 15 17 8 9 1008.9 - 0.0
31/07:00am 7.6 3.7 5.4 86 1.0 N 15 19 8 10 1008.8 - 0.0
31/06:30am 8.6 4.0 5.8 82 1.3 N 19 20 10 11 1008.8 - 0.0
31/06:00am 9.3 4.7 6.5 83 1.3 N 20 26 11 14 1008.9 1009.0 0.0
31/05:30am 9.0 4.5 6.9 87 1.0 N 20 24 11 13 1009.1 - 0.0
31/05:00am 8.7 4.2 6.8 88 0.9 N 20 26 11 14 1009.5 - 0.0
31/04:30am 8.7 4.4 6.8 88 0.9 N 19 22 10 12 1009.9 - 0.0
31/04:00am 8.9 4.6 6.8 87 1.0 N 19 20 10 11 1010.2 - 0.0
31/03:30am 9.2 4.9 7.1 87 1.0 N 19 24 10 13 1010.7 - 0.0
31/03:00am 9.6 5.4 7.3 85 1.1 NNE 19 20 10 11 1011.1 1011.2 0.0
31/02:30am 10.0 5.8 7.3 83 1.3 N 19 22 10 12 1011.5 - 0.0
31/02:00am 10.0 6.5 7.3 83 1.3 N 15 19 8 10 1011.9 - 0.0
31/01:30am 10.1 6.7 7.6 84 1.2 N 15 17 8 9 1012.2 - 0.0
31/01:00am 10.6 7.3 8.1 84 1.2 NNW 15 17 8 9 1012.7 - 0.0
31/12:30am 11.2 8.0 8.4 83 1.4 NNW 15 17 8 9 1013.1 - 0.0
31/12:00am 11.4 8.2 8.6 83 1.4 NNW 15 17 8 9 1013.5 1013.6 0.0
 
Date/Time
EST
Temp
°C
App
Temp
°C
Dew
Point
Rel
Hum
%
Delta-T
°C
Wind Press
QNH
hPa
Press
MSL
hPa
Rain
since 9 am
mm
Dir
 
Spd
km/h
Gust
km/h
Spd
kts
Gust
kts
30/11:30pm 12.2 8.6 8.4 77 1.9 NW 17 20 9 11 1013.8 - 0.0
30/11:00pm 12.4 8.9 8.6 77 1.9 NW 17 20 9 11 1014.2 - 0.0
30/10:30pm 12.3 9.3 9.1 81 1.6 NNW 15 17 8 9 1014.5 - 0.0
30/10:00pm 12.0 8.9 9.0 82 1.5 N 15 17 8 9 1014.6 - 0.0
30/09:30pm 10.5 7.2 8.2 86 1.1 N 15 17 8 9 1014.8 - 0.0
30/09:00pm 11.5 8.0 8.7 83 1.4 N 17 19 9 10 1014.9 1015.1 0.0
30/08:30pm 11.8 8.7 9.0 83 1.4 N 15 19 8 10 1015.0 - 0.0
30/08:00pm 11.1 8.4 8.9 86 1.1 NNW 13 13 7 7 1015.0 - 0.0
30/07:30pm 12.5 9.6 9.6 82 1.5 NNW 15 17 8 9 1015.1 - 0.0
30/07:00pm 12.9 10.4 9.8 81 1.6 NNW 13 17 7 9 1015.3 - 0.0
30/06:30pm 13.3 10.9 10.0 80 1.7 NW 13 15 7 8 1015.0 - 0.0
30/06:00pm 14.3 11.8 9.7 74 2.4 WNW 13 15 7 8 1014.9 1015.1 0.0
30/05:30pm 15.7 11.7 8.9 64 3.5 W 20 26 11 14 1014.9 - 0.0
30/05:00pm 16.5 11.3 8.7 60 4.0 W 26 35 14 19 1014.9 - 0.0
30/04:30pm 17.8 13.8 9.2 57 4.5 WNW 20 26 11 14 1014.6 - 0.0
30/04:00pm 17.4 12.2 8.9 57 4.4 NW 26 35 14 19 1014.5 - 0.0
30/03:30pm 17.8 12.0 9.4 58 4.4 WNW 30 39 16 21 1014.7 - 0.0
30/03:00pm 17.5 11.2 8.8 56 4.5 WNW 32 43 17 23 1015.1 1015.3 0.0
30/02:30pm 18.0 11.5 8.8 55 4.8 WNW 33 43 18 23 1015.2 - 0.0
30/02:00pm 17.8 11.9 9.2 57 4.5 WNW 30 43 16 23 1015.5 - 0.0
30/01:30pm 17.7 11.2 8.8 56 4.6 WNW 33 46 18 25 1015.8 - 0.0
30/01:00pm 18.4 11.9 9.0 54 4.9 WNW 33 46 18 25 1016.1 - 0.0
30/12:30pm 17.8 11.0 9.2 57 4.5 WNW 35 46 19 25 1016.5 - 0.0
30/12:00pm 17.6 10.6 8.5 55 4.7 WNW 35 46 19 25 1017.0 1017.2 0.0
30/11:30am 17.0 9.8 9.3 60 4.0 WNW 37 50 20 27 1017.4 - 0.0
30/11:00am 16.2 10.0 9.9 66 3.3 WNW 33 41 18 22 1017.8 - 0.0
30/10:30am 15.1 9.0 9.9 71 2.7 NW 32 39 17 21 1017.9 - 0.0
30/10:00am 14.3 8.3 10.1 76 2.2 NW 32 39 17 21 1018.0 - 0.0
30/09:30am 13.8 8.5 9.9 77 2.0 NW 28 37 15 20 1018.0 - 0.0
30/09:00am 13.0 7.7 9.9 81 1.6 NW 28 35 15 19 1017.8 1018.0 0.0
30/08:30am 12.1 7.9 9.7 85 1.2 NW 22 28 12 15 1017.6 - 0.0
30/08:00am 10.9 7.2 9.3 90 0.8 NW 19 24 10 13 1017.4 - 0.0
30/07:30am 10.2 6.8 9.0 92 0.6 NNW 17 19 9 10 1017.3 - 0.0
30/07:00am 10.1 7.1 9.1 93 0.5 NNW 15 17 8 9 1017.1 - 0.0
30/06:30am 10.0 7.3 9.0 93 0.5 NW 13 15 7 8 1016.8 - 0.0
30/06:00am 10.5 7.5 9.1 91 0.7 WNW 15 19 8 10 1016.5 1016.7 0.0
30/05:30am 11.7 8.1 9.9 89 0.9 WNW 19 24 10 13 1016.3 - 0.0
30/05:00am 12.0 7.8 9.8 86 1.1 WNW 22 28 12 15 1016.2 - 0.0
30/04:30am 11.5 7.6 9.5 87 1.0 WNW 20 26 11 14 1016.2 - 0.0
30/04:00am 12.1 7.5 9.5 84 1.3 WNW 24 30 13 16 1016.2 - 0.0
30/03:30am 12.2 8.0 9.6 84 1.3 WNW 22 28 12 15 1016.4 - 0.0
30/03:00am 12.3 8.5 9.8 85 1.3 WNW 20 26 11 14 1016.5 1016.7 0.0
30/02:30am 12.0 8.3 9.6 85 1.2 WNW 19 26 10 14 1016.6 - 0.0
30/02:00am 12.4 7.9 9.9 85 1.3 WNW 24 28 13 15 1016.8 - 0.0
30/01:30am 12.8 8.1 10.5 86 1.2 WNW 26 32 14 17 1016.8 - 0.0
30/01:00am 13.7 8.7 10.9 83 1.5 WNW 28 33 15 18 1016.5 - 0.0
30/12:30am 13.7 8.4 11.1 84 1.4 WNW 30 37 16 20 1016.8 - 0.0
30/12:00am 13.6 9.0 11.1 85 1.3 NW 26 37 14 20 1017.0 1017.2 0.0
 
Date/Time
EST
Temp
°C
App
Temp
°C
Dew
Point
Rel
Hum
%
Delta-T
°C
Wind Press
QNH
hPa
Press
MSL
hPa
Rain
since 9 am
mm
Dir
 
Spd
km/h
Gust
km/h
Spd
kts
Gust
kts
29/11:30pm 13.5 8.8 10.8 84 1.4 NW 26 32 14 17 1016.9 - 0.0
29/11:00pm 13.6 9.2 10.5 81 1.6 NW 24 35 13 19 1016.9 - 0.0
29/10:30pm 14.3 8.8 10.7 79 1.9 WNW 30 39 16 21 1016.9 - 0.0
29/10:05pm 14.6 8.5 9.6 72 2.6 WNW 32 50 17 27 1016.6 - 0.0
29/10:00pm 14.6 8.7 9.1 69 2.8 WNW 30 35 16 19 1016.7 - 0.0
29/09:30pm 14.8 10.8 8.9 68 3.0 NW 20 28 11 15 1016.7 - 0.0
29/09:00pm 14.5 10.5 9.2 70 2.7 NW 20 24 11 13 1016.4 1016.6 0.0
29/08:30pm 14.7 10.1 9.5 71 2.7 WNW 24 33 13 18 1016.3 - 0.0
29/08:03pm 15.6 9.9 8.3 62 3.7 WNW 28 48 15 26 1016.1 - 0.0
29/08:00pm 15.4 10.5 8.3 62 3.6 NW 24 48 13 26 1016.3 - 0.0
29/07:30pm 15.0 10.9 8.7 66 3.2 NW 20 28 11 15 1016.1 - 0.0
29/07:00pm 15.0 9.4 8.7 66 3.2 WNW 28 35 15 19 1015.8 - 0.0
29/06:30pm 15.4 10.5 8.3 62 3.6 WNW 24 30 13 16 1015.8 - 0.0
29/06:00pm 15.7 9.5 8.0 60 3.9 WNW 30 39 16 21 1015.5 1015.7 0.0
29/05:30pm 16.5 9.3 7.5 55 4.5 WNW 35 46 19 25 1015.1 - 0.0
29/05:00pm 16.9 9.2 7.3 53 4.8 WNW 37 52 20 28 1014.7 - 0.0
29/04:30pm 17.2 10.4 7.5 53 4.9 NW 33 43 18 23 1014.3 - 0.0
29/04:00pm 17.7 10.4 7.4 51 5.2 WNW 35 46 19 25 1014.3 - 0.0
29/03:30pm 17.3 10.6 8.1 54 4.7 WNW 33 41 18 22 1014.3 - 0.0
29/03:00pm 17.5 10.7 7.6 52 5.0 WNW 33 44 18 24 1014.2 1014.3 0.0
29/02:30pm 18.4 10.4 7.6 49 5.5 W 39 48 21 26 1014.1 - 0.0
29/02:00pm 18.5 10.8 7.0 47 5.8 WNW 37 52 20 28 1013.9 - 0.0
29/01:30pm 17.6 8.9 6.2 47 5.6 WNW 41 50 22 27 1014.2 - 0.0
29/01:00pm 17.8 9.8 5.5 44 6.0 WNW 37 48 20 26 1014.6 - 0.0
29/12:30pm 17.3 8.8 5.3 45 5.8 NW 39 50 21 27 1014.4 - 0.0
29/12:00pm 16.7 8.7 5.8 48 5.3 WNW 37 46 20 25 1015.0 1015.2 0.0
29/11:30am 15.7 7.7 5.7 51 4.8 WNW 37 46 20 25 1015.6 - 0.0
29/11:00am 15.2 7.2 5.6 52 4.6 NW 37 48 20 26 1015.6 - 0.0
29/10:30am 14.3 8.0 5.7 56 4.1 NW 28 35 15 19 1015.7 - 0.0
29/10:00am 13.0 6.8 6.3 64 3.2 NW 28 35 15 19 1016.2 - 0.0
29/09:30am 12.0 5.2 5.3 63 3.1 NW 30 35 16 19 1016.0 - 0.0
29/09:00am 10.7 4.8 5.7 71 2.3 NW 26 33 14 18 1016.3 1016.5 0.2
29/08:30am 9.6 3.6 5.2 74 2.0 NW 26 33 14 18 1016.0 - 0.2
29/08:00am 8.3 3.0 4.9 79 1.5 NNW 22 26 12 14 1015.8 - 0.2
29/07:30am 7.3 2.2 4.3 81 1.3 NNW 20 26 11 14 1015.6 - 0.2
29/07:00am 6.8 1.9 4.3 84 1.1 NNW 19 22 10 12 1015.5 - 0.2
29/06:30am 6.4 1.5 4.1 85 1.0 NW 19 20 10 11 1015.5 - 0.2
29/06:00am 6.6 1.5 4.3 85 1.0 NNW 20 24 11 13 1014.8 1015.0 0.2
29/05:30am 5.6 0.7 3.9 89 0.7 NNW 19 20 10 11 1014.9 - 0.0
29/05:00am 4.9 0.3 3.5 91 0.6 NNW 17 19 9 10 1015.2 - 0.0
29/04:30am 4.8 0.6 3.6 92 0.5 NNW 15 19 8 10 1015.0 - 0.0
29/04:00am 4.9 0.7 3.7 92 0.5 NNW 15 19 8 10 1015.2 - 0.0
29/03:30am 4.4 0.1 3.2 92 0.5 NNW 15 19 8 10 1015.2 - 0.0
29/03:00am 4.4 0.5 3.2 92 0.5 NW 13 15 7 8 1015.2 1015.4 0.0
29/02:30am 5.0 1.1 3.6 91 0.6 NNW 13 15 7 8 1015.3 - 0.0
29/02:00am 4.6 0.6 3.1 90 0.6 NW 13 17 7 9 1015.6 - 0.0
29/01:30am 5.6 1.0 3.9 89 0.7 NW 17 20 9 11 1015.6 - 0.0
29/01:00am 5.7 1.2 4.1 89 0.7 NNW 17 19 9 10 1015.8 - 0.0
29/12:30am 5.6 1.0 3.7 87 0.8 NW 17 19 9 10 1015.9 - 0.0
29/12:00am 6.4 2.3 4.3 86 0.9 NNW 15 17 8 9 1016.1 1016.3 0.0
 
Date/Time
EST
Temp
°C
App
Temp
°C
Dew
Point
Rel
Hum
%
Delta-T
°C
Wind Press
QNH
hPa
Press
MSL
hPa
Rain
since 9 am
mm
Dir
 
Spd
km/h
Gust
km/h
Spd
kts
Gust
kts
28/11:30pm 5.5 1.3 3.8 89 0.7 NNW 15 15 8 8 1016.4 - 0.0
28/11:00pm 6.3 1.8 4.2 86 0.9 NNW 17 17 9 9 1016.4 - 0.0
28/10:30pm 6.6 2.1 4.3 85 1.0 NNW 17 19 9 10 1016.3 - 0.0
28/10:00pm 6.8 2.4 4.5 85 1.0 NNW 17 19 9 10 1016.5 - 0.0
28/09:30pm 7.6 3.6 5.1 84 1.1 NNW 15 17 8 9 1016.4 - 0.0

Other Formats:

Comma delimited format used in spreadsheet applications
http://www.bom.gov.au/fwo/IDN60801/IDN60801.94843.axf

JavaScript Object Notation format (JSON) in row-major order
http://www.bom.gov.au/fwo/IDN60801/IDN60801.94843.json